createdAt,value
2018-08-03T00:01:07.174Z,48.62
2018-08-03T00:03:36.902Z,48.33
2018-08-03T00:06:06.946Z,47.98
2018-08-03T00:08:37.014Z,48.38
2018-08-03T00:11:07.336Z,48.82
2018-08-03T00:13:37.409Z,49.03
2018-08-03T00:16:07.052Z,48.24
2018-08-03T00:18:36.825Z,49.31
2018-08-03T00:21:06.513Z,49.60
2018-08-03T00:23:36.467Z,48.89
2018-08-03T00:26:06.226Z,49.97
2018-08-03T00:28:36.091Z,48.76
2018-08-03T00:31:05.796Z,49.15
2018-08-03T00:33:35.485Z,49.81
2018-08-03T00:36:05.097Z,49.32
2018-08-03T00:38:34.728Z,50.51
2018-08-03T00:41:04.697Z,49.69
2018-08-03T00:43:34.478Z,50.54
2018-08-03T00:46:04.124Z,49.88
2018-08-03T00:48:33.763Z,50.27
2018-08-03T00:51:03.529Z,50.62
2018-08-03T00:53:33.198Z,52.01
2018-08-03T00:56:02.818Z,52.00
2018-08-03T00:58:32.590Z,51.23
2018-08-03T01:01:02.536Z,52.02
2018-08-03T01:03:32.179Z,51.37
2018-08-03T01:06:01.858Z,51.40
2018-08-03T01:08:31.634Z,52.32
2018-08-03T01:11:01.459Z,51.64
2018-08-03T01:13:31.155Z,51.35
2018-08-03T01:16:00.862Z,51.51
2018-08-03T01:18:30.538Z,51.68
2018-08-03T01:21:00.200Z,52.12
2018-08-03T01:23:30.582Z,52.27
2018-08-03T01:26:00.247Z,51.96
2018-08-03T01:28:29.912Z,51.99
2018-08-03T01:30:59.574Z,51.80
2018-08-03T01:33:29.204Z,52.25
2018-08-03T01:35:58.958Z,51.36
2018-08-03T01:38:28.636Z,52.12
2018-08-03T01:40:58.313Z,52.67
2018-08-03T01:43:27.980Z,51.90
2018-08-03T01:45:57.730Z,51.63
2018-08-03T01:48:27.376Z,52.76
2018-08-03T01:50:57.077Z,52.34
2018-08-03T01:53:27.166Z,53.39
2018-08-03T01:55:56.833Z,53.56
2018-08-03T01:58:26.484Z,53.46
2018-08-03T02:00:56.167Z,53.43
2018-08-03T02:03:26.159Z,53.54
2018-08-03T02:05:56.260Z,53.49
2018-08-03T02:08:25.906Z,53.85
2018-08-03T02:10:55.694Z,54.12
2018-08-03T02:13:25.599Z,53.16
2018-08-03T02:15:55.299Z,53.34
2018-08-03T02:18:25.315Z,54.06
2018-08-03T02:20:54.926Z,53.41
2018-08-03T02:23:24.638Z,53.49
2018-08-03T02:25:54.324Z,53.32
2018-08-03T02:28:23.954Z,54.21
2018-08-03T02:30:53.766Z,53.38
2018-08-03T02:33:23.615Z,53.84
2018-08-03T02:35:53.303Z,54.47
2018-08-03T02:38:22.933Z,54.50
2018-08-03T02:40:52.671Z,54.37
2018-08-03T02:43:22.392Z,54.75
2018-08-03T02:45:52.035Z,55.14
2018-08-03T02:48:21.675Z,55.01
2018-08-03T02:50:51.669Z,55.07
2018-08-03T02:53:21.348Z,55.19
2018-08-03T02:55:50.978Z,55.04
2018-08-03T02:58:20.654Z,55.25
2018-08-03T03:00:50.557Z,55.82
2018-08-03T03:03:20.232Z,56.34
2018-08-03T03:05:49.909Z,56.23
2018-08-03T03:08:19.593Z,55.74
2018-08-03T03:10:49.697Z,55.80
2018-08-03T03:13:19.395Z,55.78
2018-08-03T03:15:49.176Z,56.19
2018-08-03T03:18:19.072Z,56.95
2018-08-03T03:20:48.698Z,55.86
2018-08-03T03:23:18.470Z,56.78
2018-08-03T03:25:48.154Z,56.75
2018-08-03T03:28:17.766Z,55.93
2018-08-03T03:30:47.726Z,56.16
2018-08-03T03:33:17.380Z,56.16
2018-08-03T03:35:47.166Z,56.33
2018-08-03T03:38:16.772Z,56.48
2018-08-03T03:40:46.730Z,55.39
2018-08-03T03:43:16.398Z,56.57
2018-08-03T03:45:46.030Z,56.20
2018-08-03T03:48:15.781Z,55.82
2018-08-03T03:50:45.939Z,56.42
2018-08-03T03:53:15.883Z,57.34
2018-08-03T03:55:45.566Z,57.22
2018-08-03T03:58:15.252Z,56.76
2018-08-03T04:00:44.976Z,56.53
2018-08-03T04:03:14.797Z,56.76
2018-08-03T04:05:44.817Z,57.83
2018-08-03T04:08:14.532Z,57.12
2018-08-03T04:10:44.235Z,57.92
2018-08-03T04:13:13.881Z,56.78
2018-08-03T04:15:43.582Z,57.92
2018-08-03T04:18:19.495Z,57.82
2018-08-03T04:20:49.770Z,57.78
2018-08-03T04:23:19.773Z,57.53
2018-08-03T04:25:49.657Z,57.59
2018-08-03T04:28:19.723Z,58.58
2018-08-03T04:30:49.537Z,58.12
2018-08-03T04:33:19.217Z,58.23
2018-08-03T04:35:48.897Z,58.39
2018-08-03T04:38:18.606Z,59.36
2018-08-03T04:40:48.416Z,58.51
2018-08-03T04:43:18.570Z,59.61
2018-08-03T04:45:48.622Z,59.13
2018-08-03T04:48:18.313Z,59.49
2018-08-03T04:50:47.989Z,58.27
2018-08-03T04:53:17.790Z,58.17
2018-08-03T04:55:47.448Z,59.16
2018-08-03T04:58:17.106Z,59.13
2018-08-03T05:00:46.765Z,58.99
2018-08-03T05:03:16.548Z,59.17
2018-08-03T05:05:46.255Z,59.10
2018-08-03T05:08:17.085Z,59.61
2018-08-03T05:10:47.246Z,59.75
2018-08-03T05:13:16.877Z,59.92
2018-08-03T05:15:46.602Z,58.57
2018-08-03T05:18:16.250Z,59.41
2018-08-03T05:20:46.019Z,59.09
2018-08-03T05:23:15.983Z,58.47
2018-08-03T05:25:45.697Z,58.41
2018-08-03T05:28:15.348Z,57.88
2018-08-03T05:30:45.001Z,58.84
2018-08-03T05:33:14.767Z,58.85
2018-08-03T05:35:44.513Z,57.60
2018-08-03T05:38:14.253Z,57.95
2018-08-03T05:40:43.910Z,57.35
2018-08-03T05:43:13.666Z,58.03
2018-08-03T05:45:43.364Z,57.76
2018-08-03T05:48:13.265Z,57.13
2018-08-03T05:50:43.247Z,56.85
2018-08-03T05:56:12.192Z,56.98
2018-08-03T05:58:41.854Z,55.78
2018-08-03T06:01:12.009Z,56.09
2018-08-03T06:03:41.686Z,54.90
2018-08-03T06:06:11.644Z,54.71
2018-08-03T06:08:41.297Z,55.43
2018-08-03T06:11:11.290Z,54.42
2018-08-03T06:13:41.325Z,55.04
2018-08-03T06:16:11.281Z,53.71
2018-08-03T06:18:40.894Z,52.83
2018-08-03T06:21:10.667Z,51.87
2018-08-03T06:23:40.358Z,51.56
2018-08-03T06:26:10.520Z,51.10
2018-08-03T06:28:40.335Z,50.46
2018-08-03T06:31:10.364Z,50.73
2018-08-03T06:33:40.054Z,49.44
2018-08-03T06:36:09.803Z,49.63
2018-08-03T06:38:39.481Z,49.32
2018-08-03T06:41:09.305Z,48.68
2018-08-03T06:43:38.957Z,48.65
2018-08-03T06:46:08.923Z,46.36
2018-08-03T06:48:38.581Z,46.29
2018-08-03T06:51:08.586Z,45.25
2018-08-03T06:53:38.658Z,44.98
2018-08-03T06:56:09.036Z,44.24
2018-08-03T06:58:39.222Z,43.88
2018-08-03T07:01:09.759Z,44.57
2018-08-03T07:03:39.835Z,43.55
2018-08-03T07:06:09.720Z,43.40
2018-08-03T07:08:39.947Z,43.39
2018-08-03T07:11:10.134Z,43.14
2018-08-03T07:13:40.353Z,42.21
2018-08-03T07:16:10.590Z,41.28
2018-08-03T07:18:40.808Z,41.63
2018-08-03T07:21:11.482Z,41.83
2018-08-03T07:23:41.167Z,40.78
2018-08-03T07:26:10.850Z,39.89
2018-08-03T07:28:40.639Z,40.88
2018-08-03T07:31:10.388Z,39.28
2018-08-03T07:33:40.109Z,40.05
2018-08-03T07:36:09.893Z,40.76
2018-08-03T07:38:39.988Z,41.00
2018-08-03T07:41:10.070Z,41.06
2018-08-03T07:43:40.267Z,41.35
2018-08-03T07:46:10.490Z,38.91
2018-08-03T07:48:40.295Z,39.80
2018-08-03T07:51:10.290Z,38.89
2018-08-03T07:53:40.426Z,39.73
2018-08-03T07:56:10.261Z,38.47
2018-08-03T07:58:40.202Z,37.17
2018-08-03T08:01:09.964Z,36.80
2018-08-03T08:03:39.737Z,36.54
2018-08-03T08:06:09.528Z,37.87
2018-08-03T08:08:39.186Z,37.35
2018-08-03T08:11:09.279Z,35.91
2018-08-03T08:13:38.978Z,36.97
2018-08-03T08:16:09.025Z,36.28
2018-08-03T08:18:38.897Z,36.29
2018-08-03T08:21:08.556Z,35.11
2018-08-03T08:23:38.627Z,35.29
2018-08-03T08:26:09.940Z,35.91
2018-08-03T08:28:39.850Z,34.76
2018-08-03T08:31:10.288Z,36.00
2018-08-03T08:33:40.271Z,34.86
2018-08-03T08:36:10.183Z,34.68
2018-08-03T08:38:40.968Z,34.80
2018-08-03T08:41:11.038Z,34.45
2018-08-03T08:43:41.953Z,34.06
2018-08-03T08:46:15.915Z,33.55
2018-08-03T08:48:45.748Z,34.62
2018-08-03T08:51:15.745Z,34.08
2018-08-03T08:53:47.185Z,33.76
2018-08-03T08:56:16.887Z,34.84
2018-08-03T08:58:46.702Z,33.19
2018-08-03T09:01:17.272Z,33.78
2018-08-03T09:03:50.890Z,34.23
2018-08-03T09:06:22.009Z,34.07
2018-08-03T09:08:51.883Z,33.49
2018-08-03T09:11:21.522Z,34.07
2018-08-03T09:13:51.306Z,32.08
2018-08-03T09:16:20.938Z,31.63
2018-08-03T09:18:50.701Z,33.29
2018-08-03T09:21:20.480Z,34.11
2018-08-03T09:23:50.153Z,34.14
2018-08-03T09:26:20.428Z,32.46
2018-08-03T09:28:50.418Z,32.53
2018-08-03T09:31:20.624Z,33.27
2018-08-03T09:33:54.833Z,32.88
2018-08-03T09:36:24.984Z,33.44
2018-08-03T09:38:58.365Z,33.07
2018-08-03T09:41:27.976Z,33.14
2018-08-03T09:43:58.085Z,33.36
2018-08-03T09:46:28.773Z,31.80
2018-08-03T09:48:59.579Z,30.90
2018-08-03T09:51:29.867Z,30.59
2018-08-03T09:54:02.886Z,31.02
2018-08-03T09:56:33.701Z,31.68
2018-08-03T09:59:03.862Z,32.50
2018-08-03T10:01:33.551Z,31.86
2018-08-03T10:04:03.496Z,31.90
2018-08-03T10:06:33.330Z,31.44
2018-08-03T10:09:03.589Z,31.94
2018-08-03T10:11:33.341Z,31.75
2018-08-03T10:14:03.536Z,31.32
2018-08-03T10:16:33.629Z,31.85
2018-08-03T10:19:03.496Z,30.01
2018-08-03T10:21:37.682Z,30.50
2018-08-03T10:24:07.658Z,30.94
2018-08-03T10:26:38.094Z,29.25
2018-08-03T10:29:08.202Z,30.65
2018-08-03T10:31:38.269Z,30.21
2018-08-03T10:34:08.665Z,30.29
2018-08-03T10:36:39.511Z,30.51
2018-08-03T10:39:11.178Z,30.81
2018-08-03T10:41:41.604Z,29.37
2018-08-03T10:44:12.270Z,29.68
2018-08-03T10:46:42.406Z,28.84
2018-08-03T10:49:12.103Z,28.03
2018-08-03T10:51:44.037Z,28.77
2018-08-03T10:54:13.890Z,28.00
2018-08-03T10:56:44.209Z,29.70
2018-08-03T10:59:14.402Z,28.97
2018-08-03T11:01:44.866Z,30.15
2018-08-03T11:04:15.009Z,29.47
2018-08-03T11:06:45.158Z,28.90
2018-08-03T11:09:15.052Z,29.47
2018-08-03T11:11:45.961Z,29.70
2018-08-03T11:14:16.674Z,30.23
2018-08-03T11:16:46.332Z,29.59
2018-08-03T11:19:16.083Z,28.17
2018-08-03T11:21:46.099Z,27.89
2018-08-03T11:24:17.739Z,28.86
2018-08-03T11:26:47.824Z,28.35
2018-08-03T11:29:18.682Z,27.22
2018-08-03T11:31:48.682Z,27.39
2018-08-03T11:34:18.780Z,27.28
2018-08-03T11:36:48.941Z,28.71
2018-08-03T11:39:18.729Z,27.34
2018-08-03T11:41:48.793Z,27.55
2018-08-03T11:44:18.466Z,27.68
2018-08-03T11:46:48.978Z,27.62
2018-08-03T11:49:20.351Z,27.04
2018-08-03T11:51:50.219Z,28.26
2018-08-03T11:54:19.984Z,27.46
2018-08-03T11:56:50.852Z,28.23
2018-08-03T11:59:20.668Z,28.04
2018-08-03T12:01:50.537Z,29.04
2018-08-03T12:04:20.622Z,30.32
2018-08-03T12:06:50.502Z,28.92
2018-08-03T12:09:20.579Z,29.42
2018-08-03T12:11:50.290Z,29.98
2018-08-03T12:14:19.973Z,29.52
2018-08-03T12:16:49.644Z,28.31
2018-08-03T12:19:19.297Z,28.31
2018-08-03T12:21:49.272Z,29.73
2018-08-03T12:24:18.895Z,29.36
2018-08-03T12:26:48.550Z,29.92
2018-08-03T12:29:18.236Z,28.82
2018-08-03T12:31:47.942Z,30.44
2018-08-03T12:34:17.993Z,30.04
2018-08-03T12:36:47.738Z,30.10
2018-08-03T12:39:17.416Z,31.02
2018-08-03T12:41:47.153Z,29.92
2018-08-03T12:44:16.869Z,30.78
2018-08-03T12:46:48.422Z,31.31
2018-08-03T12:49:49.506Z,31.03
2018-08-03T12:52:19.874Z,30.86
2018-08-03T12:54:49.582Z,30.29
2018-08-03T12:57:19.369Z,31.40
2018-08-03T12:59:49.038Z,31.97
2018-08-03T13:02:18.892Z,31.56
2018-08-03T13:04:48.763Z,31.38
2018-08-03T13:07:18.530Z,30.84
2018-08-03T13:09:48.537Z,31.55
2018-08-03T13:12:18.183Z,30.97
2018-08-03T13:14:47.982Z,30.57
2018-08-03T13:17:17.800Z,31.56
2018-08-03T13:19:47.653Z,30.74
2018-08-03T13:22:21.281Z,29.78
2018-08-03T13:24:52.175Z,30.27
2018-08-03T13:27:21.997Z,30.76
2018-08-03T13:29:51.987Z,30.66
2018-08-03T13:32:21.706Z,31.07
2018-08-03T13:34:51.789Z,30.14
2018-08-03T13:37:21.444Z,30.71
2018-08-03T13:39:51.090Z,29.37
2018-08-03T13:42:21.001Z,29.96
2018-08-03T13:44:50.681Z,29.35
2018-08-03T13:47:20.542Z,29.57
2018-08-03T13:49:50.391Z,28.41
2018-08-03T13:52:20.304Z,29.38
2018-08-03T13:54:50.767Z,30.28
2018-08-03T13:57:22.142Z,28.40
2018-08-03T13:59:52.562Z,29.69
2018-08-03T14:02:28.257Z,29.69
2018-08-03T14:04:58.230Z,29.61
2018-08-03T14:07:28.185Z,29.64
2018-08-03T14:09:58.105Z,29.44
2018-08-03T14:12:27.768Z,29.20
2018-08-03T14:14:57.413Z,29.86
2018-08-03T14:17:27.396Z,29.19
2018-08-03T14:19:57.370Z,29.24
2018-08-03T14:22:27.132Z,28.63
2018-08-03T14:24:56.778Z,29.57
2018-08-03T14:27:26.502Z,28.94
2018-08-03T14:29:56.543Z,29.66
2018-08-03T14:32:26.506Z,28.96
2018-08-03T14:34:56.359Z,29.53
2018-08-03T14:37:29.383Z,28.04
2018-08-03T14:39:59.068Z,29.56
2018-08-03T14:42:28.827Z,28.75
2018-08-03T14:44:58.570Z,29.01
2018-08-03T14:47:28.578Z,29.21
2018-08-03T14:49:59.122Z,28.84
2018-08-03T14:52:28.968Z,28.69
2018-08-03T14:54:58.742Z,28.62
2018-08-03T14:57:28.487Z,29.53
2018-08-03T14:59:58.689Z,28.27
2018-08-03T15:02:28.623Z,28.19
2018-08-03T15:04:58.278Z,29.57
2018-08-03T15:07:27.915Z,29.33
2018-08-03T15:09:57.921Z,29.72
2018-08-03T15:12:27.897Z,28.40
2018-08-03T15:14:58.042Z,28.54
2018-08-03T15:17:27.673Z,29.31
2018-08-03T15:19:57.538Z,27.76
2018-08-03T15:22:27.443Z,28.86
2018-08-03T15:24:57.468Z,29.71
2018-08-03T15:27:27.597Z,28.45
2018-08-03T15:29:57.607Z,27.68
2018-08-03T15:32:27.565Z,27.92
2018-08-03T15:34:57.536Z,27.98
2018-08-03T15:37:27.877Z,28.02
2018-08-03T15:39:57.774Z,27.81
2018-08-03T15:42:27.848Z,27.22
2018-08-03T15:44:57.712Z,27.18
2018-08-03T15:47:27.870Z,28.19
2018-08-03T15:49:58.264Z,28.26
2018-08-03T15:52:28.166Z,29.08
2018-08-03T15:54:57.998Z,28.94
2018-08-03T15:57:31.994Z,28.18
2018-08-03T16:00:01.723Z,28.67
2018-08-03T16:02:31.393Z,28.97
2018-08-03T16:05:01.236Z,29.08
2018-08-03T16:07:31.213Z,28.11
2018-08-03T16:10:00.880Z,26.89
2018-08-03T16:12:30.628Z,28.18
2018-08-03T16:15:00.431Z,28.59
2018-08-03T16:17:30.301Z,28.20
2018-08-03T16:20:02.486Z,27.92
2018-08-03T16:22:34.661Z,27.91
2018-08-03T16:25:04.872Z,27.79
2018-08-03T16:27:35.520Z,27.69
2018-08-03T16:30:07.429Z,28.05
2018-08-03T16:32:38.887Z,27.21
2018-08-03T16:35:09.827Z,27.84
2018-08-03T16:37:40.490Z,27.74
2018-08-03T16:40:10.777Z,28.53
2018-08-03T16:42:40.657Z,27.75
2018-08-03T16:45:10.458Z,27.77
2018-08-03T16:47:40.283Z,28.10
2018-08-03T16:50:12.783Z,27.40
2018-08-03T16:52:42.483Z,27.88
2018-08-03T16:55:14.346Z,28.29
2018-08-03T16:57:44.858Z,27.64
2018-08-03T17:00:17.975Z,27.32
2018-08-03T17:02:49.346Z,26.50
2018-08-03T17:05:19.129Z,27.75
2018-08-03T17:07:48.816Z,28.35
2018-08-03T17:10:18.728Z,27.68
2018-08-03T17:12:49.402Z,27.42
2018-08-03T17:15:23.311Z,28.07
2018-08-03T17:17:53.302Z,26.57
2018-08-03T17:20:23.115Z,27.74
2018-08-03T17:22:53.225Z,27.31
2018-08-03T17:25:22.893Z,27.25
2018-08-03T17:27:52.939Z,27.38
2018-08-03T17:30:22.753Z,27.07
2018-08-03T17:32:52.663Z,26.61
2018-08-03T17:35:22.409Z,27.99
2018-08-03T17:37:52.501Z,28.17
2018-08-03T17:40:22.437Z,27.82
2018-08-03T17:42:52.189Z,27.74
2018-08-03T17:45:22.394Z,27.24
2018-08-03T17:47:52.224Z,28.25
2018-08-03T17:50:21.926Z,28.71
2018-08-03T17:52:51.745Z,27.34
2018-08-03T17:55:22.118Z,27.73
2018-08-03T17:57:55.577Z,27.89
2018-08-03T18:00:25.346Z,27.86
2018-08-03T18:02:56.555Z,28.32
2018-08-03T18:05:35.274Z,29.27
2018-08-03T18:08:05.390Z,30.51
2018-08-03T18:10:35.702Z,30.51
2018-08-03T18:13:05.616Z,31.34
2018-08-03T18:15:35.339Z,31.18
2018-08-03T18:18:05.570Z,31.07
2018-08-03T18:20:35.476Z,32.50
2018-08-03T18:23:08.183Z,33.03
2018-08-03T18:25:39.705Z,33.01
2018-08-03T18:28:09.434Z,32.19
2018-08-03T18:30:39.596Z,32.47
2018-08-03T18:33:09.440Z,31.99
2018-08-03T18:35:39.434Z,34.12
2018-08-03T18:38:09.184Z,34.42
2018-08-03T18:40:39.594Z,34.59
2018-08-03T18:43:09.869Z,34.89
2018-08-03T18:45:40.229Z,35.00
2018-08-03T18:48:10.206Z,35.07
2018-08-03T18:50:40.178Z,34.39
2018-08-03T18:53:09.937Z,34.35
2018-08-03T18:55:39.625Z,34.19
2018-08-03T18:58:09.351Z,34.66
2018-08-03T19:00:39.194Z,35.70
2018-08-03T19:03:09.316Z,34.94
2018-08-03T19:05:39.049Z,35.14
2018-08-03T19:08:09.001Z,35.07
2018-08-03T19:10:39.043Z,35.24
2018-08-03T19:13:08.767Z,36.36
2018-08-03T19:15:38.604Z,35.29
2018-08-03T19:18:08.492Z,35.77
2018-08-03T19:20:38.567Z,35.37
2018-08-03T19:23:08.300Z,35.73
2018-08-03T19:25:37.938Z,36.16
2018-08-03T19:28:07.902Z,35.84
2018-08-03T19:30:37.666Z,35.54
2018-08-03T19:33:07.442Z,35.23
2018-08-03T19:35:37.556Z,35.24
2018-08-03T19:38:07.608Z,35.07
2018-08-03T19:40:37.524Z,36.18
2018-08-03T19:43:07.382Z,35.38
2018-08-03T19:45:37.533Z,35.95
2018-08-03T19:48:07.823Z,34.86
2018-08-03T19:50:37.710Z,35.67
2018-08-03T19:53:07.555Z,35.23
2018-08-03T19:55:37.365Z,36.25
2018-08-03T19:58:07.256Z,35.59
2018-08-03T20:00:37.091Z,35.64
2018-08-03T20:03:08.189Z,36.04
2018-08-03T20:05:38.191Z,35.64
2018-08-03T20:08:10.757Z,36.02
2018-08-03T20:10:41.387Z,35.78
2018-08-03T20:13:12.634Z,37.42
2018-08-03T20:15:42.848Z,36.37
2018-08-03T20:18:12.636Z,36.96
2018-08-03T20:20:42.597Z,37.20
2018-08-03T20:23:12.565Z,37.40
2018-08-03T20:25:42.694Z,37.10
2018-08-03T20:28:12.581Z,37.27
2018-08-03T20:30:42.325Z,37.17
2018-08-03T20:33:12.159Z,36.88
2018-08-03T20:35:42.211Z,37.65
2018-08-03T20:38:12.093Z,37.19
2018-08-03T20:40:41.813Z,38.41
2018-08-03T20:43:12.429Z,37.41
2018-08-03T20:45:42.054Z,38.12
2018-08-03T20:48:11.976Z,38.20
2018-08-03T20:50:41.964Z,38.58
2018-08-03T20:53:12.003Z,39.36
2018-08-03T20:55:41.681Z,39.62
2018-08-03T20:58:11.360Z,39.45
2018-08-03T21:00:41.354Z,39.58
2018-08-03T21:03:11.163Z,39.70
2018-08-03T21:05:41.227Z,39.05
2018-08-03T21:08:11.122Z,39.21
2018-08-03T21:10:41.046Z,39.60
2018-08-03T21:13:11.007Z,39.52
2018-08-03T21:15:41.103Z,39.73
2018-08-03T21:18:10.954Z,40.95
2018-08-03T21:20:40.870Z,41.13
2018-08-03T21:23:10.619Z,40.57
2018-08-03T21:25:40.725Z,41.54
2018-08-03T21:28:10.455Z,41.69
2018-08-03T21:30:40.515Z,41.39
2018-08-03T21:33:10.157Z,41.47
2018-08-03T21:35:40.557Z,41.80
2018-08-03T21:38:10.660Z,42.67
2018-08-03T21:40:40.429Z,42.70
2018-08-03T21:43:10.378Z,42.81
2018-08-03T21:45:40.015Z,43.49
2018-08-03T21:48:09.862Z,44.12
2018-08-03T21:50:39.657Z,44.18
2018-08-03T21:53:09.413Z,43.37
2018-08-03T21:55:39.122Z,44.08
2018-08-03T21:58:08.795Z,43.58
2018-08-03T22:00:39.558Z,43.76
2018-08-03T22:03:09.334Z,44.32
2018-08-03T22:05:39.426Z,44.43
2018-08-03T22:08:09.085Z,43.52
2018-08-03T22:10:38.926Z,44.41
2018-08-03T22:13:08.615Z,44.31
2018-08-03T22:15:38.444Z,44.64
2018-08-03T22:18:08.089Z,44.70
2018-08-03T22:20:37.897Z,44.71
2018-08-03T22:23:07.617Z,44.02
2018-08-03T22:25:37.767Z,43.89
2018-08-03T22:28:07.638Z,44.17
2018-08-03T22:30:37.280Z,45.31
2018-08-03T22:33:07.092Z,44.04
2018-08-03T22:35:36.833Z,44.51
2018-08-03T22:38:06.501Z,44.66
2018-08-03T22:40:36.192Z,45.83
2018-08-03T22:43:06.262Z,45.56
2018-08-03T22:45:36.128Z,45.89
2018-08-03T22:48:06.288Z,46.17
2018-08-03T22:50:36.152Z,45.43
2018-08-03T22:53:05.962Z,45.59
2018-08-03T22:55:36.176Z,46.09
2018-08-03T22:58:06.452Z,46.05
2018-08-03T23:00:36.109Z,45.75
2018-08-03T23:03:06.010Z,45.66
2018-08-03T23:05:35.747Z,45.74
2018-08-03T23:08:05.939Z,46.76
2018-08-03T23:10:36.060Z,46.55
2018-08-03T23:13:06.577Z,45.75
2018-08-03T23:15:36.642Z,46.94
2018-08-03T23:18:06.921Z,45.70
2018-08-03T23:20:36.571Z,45.88
2018-08-03T23:23:06.354Z,46.54
2018-08-03T23:25:36.141Z,46.54
2018-08-03T23:28:05.855Z,46.57
2018-08-03T23:30:35.512Z,45.51
2018-08-03T23:33:05.282Z,46.73
2018-08-03T23:35:35.152Z,45.72
2018-08-03T23:38:04.870Z,46.71
2018-08-03T23:40:34.502Z,46.81
2018-08-03T23:43:04.187Z,46.83
2018-08-03T23:45:34.234Z,45.95
2018-08-03T23:48:03.913Z,46.39
2018-08-03T23:50:33.900Z,46.16
2018-08-03T23:53:03.608Z,47.64
2018-08-03T23:55:33.348Z,47.96
2018-08-03T23:58:03.083Z,47.29
